EZY4645 KLAX-KSAN
Flight info
| Callsign | EZY4645 |
|---|---|
| Flight time | 0h 35m |
| Altitude | 6000 |
| Route | STRAIGHT OUT DEPARTURE |
| Aircraft | A320/M-S/N |
Departure
| Time | 2026-04-24 16:05 |
|---|---|
| Airport | Los Angeles International Airport (KLAX) |
Arrival
| Time | 2026-04-24 16:41 |
|---|---|
| Airport | San Diego International Airport (KSAN) |
| Time | Latitude | Longitude | Altitude | Speed | Heading |
|---|---|---|---|---|---|
| 2026-04-24 15:41 | 33.94153 | -118.39896 | 129 ft | 0 kts | 272° |
| 2026-04-24 15:57 | 33.94153 | -118.39892 | 129 ft | 2 kts | 272° |
| 2026-04-24 15:57 | 33.94152 | -118.39872 | 125 ft | 2 kts | 272° |
| 2026-04-24 15:57 | 33.94153 | -118.39853 | 125 ft | 2 kts | 235° |
| 2026-04-24 15:58 | 33.94163 | -118.39843 | 125 ft | 0 kts | 181° |
| 2026-04-24 15:58 | 33.94161 | -118.39843 | 124 ft | 0 kts | 181° |
| 2026-04-24 15:59 | 33.94127 | -118.39838 | 125 ft | 10 kts | 160° |
| 2026-04-24 15:59 | 33.94036 | -118.39824 | 127 ft | 17 kts | 174° |
| 2026-04-24 16:00 | 33.93992 | -118.39716 | 129 ft | 14 kts | 76° |
| 2026-04-24 16:00 | 33.94004 | -118.39578 | 128 ft | 19 kts | 82° |
| 2026-04-24 16:00 | 33.94022 | -118.39402 | 129 ft | 23 kts | 82° |
| 2026-04-24 16:00 | 33.94023 | -118.39244 | 124 ft | 17 kts | 117° |
| 2026-04-24 16:01 | 33.93962 | -118.39173 | 127 ft | 10 kts | 97° |
| 2026-04-24 16:01 | 33.93971 | -118.39095 | 129 ft | 12 kts | 83° |
| 2026-04-24 16:01 | 33.93983 | -118.38972 | 126 ft | 17 kts | 83° |
| 2026-04-24 16:01 | 33.94000 | -118.38807 | 126 ft | 22 kts | 84° |
| 2026-04-24 16:02 | 33.94017 | -118.38644 | 127 ft | 20 kts | 83° |
| 2026-04-24 16:02 | 33.94033 | -118.38484 | 129 ft | 20 kts | 83° |
| 2026-04-24 16:02 | 33.94052 | -118.38301 | 125 ft | 24 kts | 83° |
| 2026-04-24 16:02 | 33.94070 | -118.38124 | 125 ft | 13 kts | 83° |
| 2026-04-24 16:03 | 33.94074 | -118.38036 | 129 ft | 0 kts | 107° |
| 2026-04-24 16:03 | 33.94067 | -118.38021 | 125 ft | 7 kts | 128° |
| 2026-04-24 16:04 | 33.93989 | -118.38018 | 125 ft | 16 kts | 224° |
| 2026-04-24 16:04 | 33.93977 | -118.38113 | 129 ft | 15 kts | 266° |
| 2026-04-24 16:04 | 33.93942 | -118.38424 | 129 ft | 81 kts | 263° |
| 2026-04-24 16:04 | 33.93830 | -118.39519 | 128 ft | 180 kts | 263° |
| 2026-04-24 16:05 | 33.93431 | -118.43305 | 876 ft | 272 kts | 261° |
| 2026-04-24 16:05 | 33.93137 | -118.45753 | 1501 ft | 315 kts | 261° |
| 2026-04-24 16:06 | 33.92371 | -118.51510 | 2773 ft | 379 kts | 259° |
| 2026-04-24 16:06 | 33.91946 | -118.54452 | 3085 ft | 348 kts | 259° |
| 2026-04-24 16:06 | 33.91090 | -118.59880 | 2617 ft | 302 kts | 258° |
| 2026-04-24 16:07 | 33.90778 | -118.62302 | 2493 ft | 283 kts | 259° |
| 2026-04-24 16:07 | 33.90476 | -118.64547 | 2557 ft | 263 kts | 259° |
| 2026-04-24 16:07 | 33.89886 | -118.68589 | 3313 ft | 228 kts | 257° |
| 2026-04-24 16:08 | 33.89600 | -118.70411 | 3635 ft | 216 kts | 257° |
| 2026-04-24 16:08 | 33.88987 | -118.74055 | 4405 ft | 231 kts | 258° |
| 2026-04-24 16:09 | 33.88315 | -118.77951 | 5385 ft | 243 kts | 258° |
| 2026-04-24 16:09 | 33.87967 | -118.79967 | 5915 ft | 248 kts | 258° |
| 2026-04-24 16:09 | 33.87617 | -118.81989 | 6435 ft | 248 kts | 258° |
| 2026-04-24 16:09 | 33.87204 | -118.84038 | 6854 ft | 257 kts | 252° |
| 2026-04-24 16:10 | 33.83445 | -118.88730 | 7533 ft | 276 kts | 198° |
| 2026-04-24 16:11 | 33.79600 | -118.88622 | 7569 ft | 283 kts | 167° |
| 2026-04-24 16:11 | 33.77773 | -118.87719 | 7655 ft | 286 kts | 154° |
| 2026-04-24 16:11 | 33.76027 | -118.86570 | 7637 ft | 287 kts | 152° |
| 2026-04-24 16:12 | 33.72493 | -118.83892 | 7330 ft | 318 kts | 144° |
| 2026-04-24 16:12 | 33.70836 | -118.82087 | 7448 ft | 323 kts | 135° |
| 2026-04-24 16:12 | 33.67986 | -118.78341 | 7534 ft | 330 kts | 133° |
| 2026-04-24 16:13 | 33.66428 | -118.76252 | 7598 ft | 340 kts | 133° |
| 2026-04-24 16:13 | 33.63302 | -118.71945 | 7719 ft | 343 kts | 131° |
| 2026-04-24 16:14 | 33.60220 | -118.67579 | 7537 ft | 342 kts | 131° |
| 2026-04-24 16:14 | 33.58684 | -118.65390 | 7501 ft | 343 kts | 131° |
| 2026-04-24 16:14 | 33.55734 | -118.60895 | 7494 ft | 343 kts | 127° |
| 2026-04-24 16:15 | 33.54819 | -118.59350 | 7491 ft | 343 kts | 126° |
| 2026-04-24 16:15 | 33.51708 | -118.53614 | 7577 ft | 363 kts | 116° |
| 2026-04-24 16:16 | 33.50024 | -118.47805 | 7607 ft | 372 kts | 108° |
| 2026-04-24 16:16 | 33.49305 | -118.44831 | 7500 ft | 371 kts | 104° |
| 2026-04-24 16:17 | 33.47292 | -118.35903 | 7512 ft | 369 kts | 110° |
| 2026-04-24 16:17 | 33.45585 | -118.30118 | 7557 ft | 371 kts | 109° |
| 2026-04-24 16:18 | 33.44029 | -118.24223 | 7553 ft | 371 kts | 107° |
| 2026-04-24 16:18 | 33.42651 | -118.18264 | 7523 ft | 373 kts | 105° |
| 2026-04-24 16:18 | 33.42015 | -118.15242 | 7507 ft | 374 kts | 104° |
| 2026-04-24 16:19 | 33.40852 | -118.09154 | 7509 ft | 375 kts | 103° |
| 2026-04-24 16:19 | 33.40317 | -118.06106 | 7494 ft | 374 kts | 102° |
| 2026-04-24 16:20 | 33.39330 | -117.99991 | 7476 ft | 374 kts | 101° |
| 2026-04-24 16:20 | 33.38421 | -117.93850 | 7471 ft | 374 kts | 100° |
| 2026-04-24 16:20 | 33.37963 | -117.90830 | 7516 ft | 374 kts | 102° |
| 2026-04-24 16:21 | 33.36410 | -117.84918 | 7512 ft | 373 kts | 120° |
| 2026-04-24 16:21 | 33.34818 | -117.82495 | 7541 ft | 371 kts | 134° |
| 2026-04-24 16:21 | 33.33066 | -117.80220 | 7534 ft | 372 kts | 134° |
| 2026-04-24 16:22 | 33.31331 | -117.77926 | 7552 ft | 372 kts | 131° |
| 2026-04-24 16:22 | 33.28779 | -117.72526 | 7536 ft | 374 kts | 116° |
| 2026-04-24 16:22 | 33.27695 | -117.69704 | 7594 ft | 374 kts | 115° |
| 2026-04-24 16:23 | 33.26922 | -117.67865 | 7648 ft | 373 kts | 120° |
| 2026-04-24 16:23 | 33.25673 | -117.65142 | 7535 ft | 373 kts | 119° |
| 2026-04-24 16:23 | 33.24433 | -117.62422 | 7526 ft | 373 kts | 119° |
| 2026-04-24 16:24 | 33.22050 | -117.56927 | 7458 ft | 373 kts | 117° |
| 2026-04-24 16:24 | 33.20905 | -117.54150 | 7493 ft | 373 kts | 116° |
| 2026-04-24 16:24 | 33.19788 | -117.51358 | 7550 ft | 373 kts | 116° |
| 2026-04-24 16:24 | 33.18697 | -117.48548 | 7535 ft | 372 kts | 115° |
| 2026-04-24 16:25 | 33.17666 | -117.45837 | 7487 ft | 345 kts | 115° |
| 2026-04-24 16:25 | 33.16708 | -117.43322 | 7473 ft | 323 kts | 115° |
| 2026-04-24 16:25 | 33.15793 | -117.40914 | 7490 ft | 317 kts | 115° |
| 2026-04-24 16:26 | 33.14008 | -117.36093 | 7521 ft | 318 kts | 114° |
| 2026-04-24 16:26 | 33.13132 | -117.33694 | 7515 ft | 306 kts | 114° |
| 2026-04-24 16:26 | 33.11408 | -117.29280 | 7485 ft | 289 kts | 115° |
| 2026-04-24 16:27 | 33.10583 | -117.27093 | 7394 ft | 289 kts | 115° |
| 2026-04-24 16:27 | 33.09781 | -117.24893 | 7417 ft | 290 kts | 114° |
| 2026-04-24 16:27 | 33.08999 | -117.22674 | 7472 ft | 290 kts | 113° |
| 2026-04-24 16:27 | 33.08225 | -117.20449 | 7542 ft | 290 kts | 113° |
| 2026-04-24 16:28 | 33.07451 | -117.18223 | 7570 ft | 291 kts | 113° |
| 2026-04-24 16:28 | 33.06684 | -117.15990 | 7556 ft | 291 kts | 113° |
| 2026-04-24 16:28 | 33.05217 | -117.11511 | 7537 ft | 292 kts | 111° |
| 2026-04-24 16:29 | 33.04468 | -117.09260 | 7551 ft | 291 kts | 114° |
| 2026-04-24 16:29 | 33.03608 | -117.07073 | 7542 ft | 291 kts | 117° |
| 2026-04-24 16:29 | 33.01814 | -117.02728 | 7438 ft | 291 kts | 117° |
| 2026-04-24 16:30 | 32.99977 | -116.98467 | 7434 ft | 290 kts | 122° |
| 2026-04-24 16:30 | 32.98878 | -116.96455 | 7289 ft | 289 kts | 126° |
| 2026-04-24 16:30 | 32.97689 | -116.94524 | 7126 ft | 289 kts | 128° |
| 2026-04-24 16:31 | 32.96486 | -116.92640 | 7006 ft | 280 kts | 129° |
| 2026-04-24 16:31 | 32.95328 | -116.90851 | 6873 ft | 267 kts | 130° |
| 2026-04-24 16:31 | 32.94050 | -116.89324 | 6739 ft | 254 kts | 144° |
| 2026-04-24 16:31 | 32.92606 | -116.88226 | 6703 ft | 239 kts | 155° |
| 2026-04-24 16:32 | 32.91107 | -116.87521 | 6653 ft | 225 kts | 165° |
| 2026-04-24 16:32 | 32.89651 | -116.87024 | 6641 ft | 207 kts | 167° |
| 2026-04-24 16:32 | 32.88312 | -116.86613 | 6571 ft | 193 kts | 169° |
| 2026-04-24 16:32 | 32.87017 | -116.86255 | 6465 ft | 190 kts | 172° |
| 2026-04-24 16:33 | 32.85720 | -116.85948 | 6379 ft | 190 kts | 173° |
| 2026-04-24 16:33 | 32.84421 | -116.85686 | 6268 ft | 189 kts | 174° |
| 2026-04-24 16:33 | 32.83115 | -116.85510 | 6043 ft | 189 kts | 181° |
| 2026-04-24 16:33 | 32.81780 | -116.85581 | 5689 ft | 193 kts | 190° |
| 2026-04-24 16:34 | 32.80476 | -116.85924 | 5424 ft | 191 kts | 200° |
| 2026-04-24 16:34 | 32.79267 | -116.86477 | 5239 ft | 186 kts | 205° |
| 2026-04-24 16:34 | 32.78085 | -116.87100 | 5091 ft | 186 kts | 206° |
| 2026-04-24 16:34 | 32.76910 | -116.87751 | 4994 ft | 187 kts | 207° |
| 2026-04-24 16:35 | 32.75737 | -116.88426 | 4913 ft | 187 kts | 208° |
| 2026-04-24 16:35 | 32.74600 | -116.89174 | 4723 ft | 186 kts | 212° |
| 2026-04-24 16:35 | 32.73586 | -116.90112 | 4494 ft | 184 kts | 226° |
| 2026-04-24 16:35 | 32.72827 | -116.91320 | 4270 ft | 182 kts | 243° |
| 2026-04-24 16:36 | 32.72479 | -116.92749 | 4047 ft | 180 kts | 261° |
| 2026-04-24 16:36 | 32.72279 | -116.94222 | 3833 ft | 181 kts | 258° |
| 2026-04-24 16:36 | 32.71916 | -116.95630 | 3677 ft | 172 kts | 248° |
| 2026-04-24 16:36 | 32.71394 | -116.96877 | 3628 ft | 166 kts | 240° |
| 2026-04-24 16:37 | 32.70836 | -116.98039 | 3537 ft | 159 kts | 239° |
| 2026-04-24 16:37 | 32.70464 | -116.99262 | 3422 ft | 158 kts | 262° |
| 2026-04-24 16:37 | 32.70420 | -117.00573 | 3319 ft | 160 kts | 267° |
| 2026-04-24 16:37 | 32.70376 | -117.01893 | 3198 ft | 160 kts | 265° |
| 2026-04-24 16:38 | 32.70338 | -117.03208 | 3040 ft | 162 kts | 269° |
| 2026-04-24 16:38 | 32.70388 | -117.04598 | 2770 ft | 174 kts | 272° |
| 2026-04-24 16:38 | 32.70478 | -117.06048 | 2572 ft | 177 kts | 274° |
| 2026-04-24 16:38 | 32.70641 | -117.07498 | 2357 ft | 178 kts | 279° |
| 2026-04-24 16:39 | 32.70918 | -117.08927 | 2016 ft | 178 kts | 282° |
| 2026-04-24 16:39 | 32.71276 | -117.10413 | 1736 ft | 195 kts | 285° |
| 2026-04-24 16:39 | 32.71635 | -117.11900 | 1446 ft | 182 kts | 284° |
| 2026-04-24 16:39 | 32.71980 | -117.13334 | 1068 ft | 177 kts | 285° |
| 2026-04-24 16:40 | 32.72315 | -117.14693 | 742 ft | 172 kts | 285° |
| 2026-04-24 16:40 | 32.72644 | -117.16041 | 426 ft | 167 kts | 284° |
| 2026-04-24 16:40 | 32.72959 | -117.17335 | 157 ft | 161 kts | 284° |
| 2026-04-24 16:40 | 32.73258 | -117.18565 | 31 ft | 148 kts | 285° |
| 2026-04-24 16:41 | 32.73447 | -117.19366 | 29 ft | 49 kts | 273° |
| 2026-04-24 16:41 | 32.73407 | -117.19557 | 30 ft | 18 kts | 261° |
| 2026-04-24 16:41 | 32.73432 | -117.19706 | 29 ft | 20 kts | 286° |
| 2026-04-24 16:41 | 32.73471 | -117.19872 | 30 ft | 22 kts | 287° |
| 2026-04-24 16:42 | 32.73517 | -117.20056 | 28 ft | 24 kts | 286° |
| 2026-04-24 16:42 | 32.73519 | -117.20229 | 28 ft | 16 kts | 220° |
| 2026-04-24 16:42 | 32.73428 | -117.20264 | 26 ft | 12 kts | 197° |
| 2026-04-24 16:42 | 32.73382 | -117.20291 | 26 ft | 1 kts | 252° |
| 2026-04-24 16:43 | 32.73383 | -117.20304 | 27 ft | 2 kts | 266° |
| 2026-04-24 16:43 | 32.73380 | -117.20329 | 26 ft | 4 kts | 264° |
| 2026-04-24 16:43 | 32.73379 | -117.20341 | 26 ft | 0 kts | 264° |
| 2026-04-24 16:44 | 32.73379 | -117.20347 | 26 ft | 1 kts | 263° |
| 2026-04-24 16:44 | 32.73379 | -117.20348 | 26 ft | 0 kts | 263° |